Terminal Aerodrome Forecast
Issued by NWS

Home | Current Version | Previous Version | Text Only | Print | Product List | Glossary Off
Versions: 1 2 3 4 5 6 7 8 9 10 11 12 13 14 15 16 17 18 19 20 21 22

000
FTUS43 KMPX 191146
TAFRNH
TAF
KRNH 191146Z 1912/2012 17005KT 6SM BR SKC
     FM191600 16006KT 3SM BR OVC005
     FM192100 17007KT 6SM BR SCT007 OVC012
     FM200200 16004KT 2SM BR OVC007
     FM200700 14003KT 3SM -RA BR OVC005=

USA.gov is the U.S. government's official web portal to all federal, state and local government web resources and services.